
<gpx xmlns="http://www.topografix.com/GPX/1/1" xmlns:gpxx="http://www.garmin.com/xmlschemas/GpxExtensions/v3" xmlns:xsi="http://www.w3.org/2001/XMLSchema-instance" version="1.1" creator="Adze - https://getadze.com/" xsi:schemaLocation="http://www.topografix.com/GPX/1/1 http://www.topografix.com/GPX/1/1/gpx.xsd http://www.garmin.com/xmlschemas/GpxExtensions/v3 http://www.garmin.com/xmlschemas/GpxExtensionsv3.xsd">
    <metadata>
        <name>Untitled Document</name>
        <link href="http://www.garmin.com"></link>
        <time>2018-03-07T08:19:05.179Z</time>
    </metadata>
    <wpt lon="101.047783" lat="14.690437">
        <name>Supalai Pasak</name>
        <sym>Lodging</sym>
        <extensions>
            <gpxx:WaypointExtension xmlns:gpxx="http://www.garmin.com/xmlschemas/GpxExtensions/v3">
                <gpxx:DisplayMode>SymbolAndName</gpxx:DisplayMode>
            </gpxx:WaypointExtension>
        </extensions>
    </wpt>
    <wpt lon="101.048420" lat="14.680240">
        <time>2008-12-15T02:10:30Z</time>
        <name>December 2008 - Sunday water</name>
        <sym>Drinking Water</sym>
        <extensions>
            <gpxx:WaypointExtension xmlns:gpxx="http://www.garmin.com/xmlschemas/GpxExtensions/v3">
                <gpxx:DisplayMode>SymbolOnly</gpxx:DisplayMode>
            </gpxx:WaypointExtension>
        </extensions>
    </wpt>
    <trk>
        <name>December 2008 - Sunday</name>
        <extensions>
            <gpxx:TrackExtension xmlns:gpxx="http://www.garmin.com/xmlschemas/GpxExtensions/v3">
                <gpxx:DisplayColor>Green</gpxx:DisplayColor>
            </gpxx:TrackExtension>
        </extensions>
        <trkseg>
            <trkpt lon="101.048267" lat="14.691531">
                <ele>29.457520</ele>
                <time>2008-12-14T02:57:19Z</time>
            </trkpt>
            <trkpt lon="101.048317" lat="14.691557">
                <ele>29.938110</ele>
                <time>2008-12-14T02:57:25Z</time>
            </trkpt>
            <trkpt lon="101.048376" lat="14.691519">
                <ele>29.938110</ele>
                <time>2008-12-14T02:57:29Z</time>
            </trkpt>
            <trkpt lon="101.048419" lat="14.691255">
                <ele>30.418823</ele>
                <time>2008-12-14T02:57:40Z</time>
            </trkpt>
            <trkpt lon="101.048304" lat="14.691223">
                <ele>29.938110</ele>
                <time>2008-12-14T02:57:44Z</time>
            </trkpt>
            <trkpt lon="101.048078" lat="14.690933">
                <ele>29.457520</ele>
                <time>2008-12-14T02:57:54Z</time>
            </trkpt>
            <trkpt lon="101.048035" lat="14.690779">
                <ele>29.938110</ele>
                <time>2008-12-14T02:57:58Z</time>
            </trkpt>
            <trkpt lon="101.047845" lat="14.690649">
                <ele>28.976929</ele>
                <time>2008-12-14T02:58:04Z</time>
            </trkpt>
            <trkpt lon="101.047438" lat="14.690634">
                <ele>29.457520</ele>
                <time>2008-12-14T02:58:14Z</time>
            </trkpt>
            <trkpt lon="101.046701" lat="14.690341">
                <ele>27.534912</ele>
                <time>2008-12-14T02:58:29Z</time>
            </trkpt>
            <trkpt lon="101.046486" lat="14.690235">
                <ele>27.534912</ele>
                <time>2008-12-14T02:58:33Z</time>
            </trkpt>
            <trkpt lon="101.046340" lat="14.690065">
                <ele>27.054321</ele>
                <time>2008-12-14T02:58:37Z</time>
            </trkpt>
            <trkpt lon="101.046091" lat="14.689288">
                <ele>27.054321</ele>
                <time>2008-12-14T02:58:50Z</time>
            </trkpt>
            <trkpt lon="101.046057" lat="14.688933">
                <ele>28.496216</ele>
                <time>2008-12-14T02:58:56Z</time>
            </trkpt>
            <trkpt lon="101.045910" lat="14.688587">
                <ele>29.457520</ele>
                <time>2008-12-14T02:59:03Z</time>
            </trkpt>
            <trkpt lon="101.046053" lat="14.688417">
                <ele>28.496216</ele>
                <time>2008-12-14T02:59:10Z</time>
            </trkpt>
            <trkpt lon="101.046105" lat="14.688443">
                <ele>28.496216</ele>
                <time>2008-12-14T02:59:11Z</time>
            </trkpt>
            <trkpt lon="101.046936" lat="14.688853">
                <ele>28.496216</ele>
                <time>2008-12-14T02:59:27Z</time>
            </trkpt>
            <trkpt lon="101.047282" lat="14.689050">
                <ele>28.976929</ele>
                <time>2008-12-14T02:59:34Z</time>
            </trkpt>
            <trkpt lon="101.047454" lat="14.689098">
                <ele>29.457520</ele>
                <time>2008-12-14T02:59:37Z</time>
            </trkpt>
            <trkpt lon="101.048140" lat="14.689077">
                <ele>28.976929</ele>
                <time>2008-12-14T02:59:48Z</time>
            </trkpt>
            <trkpt lon="101.048584" lat="14.689013">
                <ele>28.976929</ele>
                <time>2008-12-14T02:59:56Z</time>
            </trkpt>
            <trkpt lon="101.049203" lat="14.689117">
                <ele>29.938110</ele>
                <time>2008-12-14T03:00:12Z</time>
            </trkpt>
            <trkpt lon="101.049217" lat="14.689239">
                <ele>29.457520</ele>
                <time>2008-12-14T03:00:16Z</time>
            </trkpt>
            <trkpt lon="101.049366" lat="14.689372">
                <ele>29.457520</ele>
                <time>2008-12-14T03:00:26Z</time>
            </trkpt>
            <trkpt lon="101.049381" lat="14.689371">
                <ele>29.457520</ele>
                <time>2008-12-14T03:00:27Z</time>
            </trkpt>
            <trkpt lon="101.049480" lat="14.689317">
                <ele>29.938110</ele>
                <time>2008-12-14T03:00:32Z</time>
            </trkpt>
            <trkpt lon="101.049969" lat="14.689317">
                <ele>31.380127</ele>
                <time>2008-12-14T03:00:46Z</time>
            </trkpt>
            <trkpt lon="101.050368" lat="14.689287">
                <ele>31.380127</ele>
                <time>2008-12-14T03:00:58Z</time>
            </trkpt>
            <trkpt lon="101.050564" lat="14.688978">
                <ele>30.899536</ele>
                <time>2008-12-14T03:01:09Z</time>
            </trkpt>
            <trkpt lon="101.050763" lat="14.688427">
                <ele>32.341553</ele>
                <time>2008-12-14T03:01:25Z</time>
            </trkpt>
            <trkpt lon="101.050849" lat="14.688149">
                <ele>32.341553</ele>
                <time>2008-12-14T03:01:33Z</time>
            </trkpt>
            <trkpt lon="101.050951" lat="14.688135">
                <ele>32.341553</ele>
                <time>2008-12-14T03:01:37Z</time>
            </trkpt>
            <trkpt lon="101.051355" lat="14.688317">
                <ele>32.822266</ele>
                <time>2008-12-14T03:01:50Z</time>
            </trkpt>
            <trkpt lon="101.051560" lat="14.688488">
                <ele>31.860718</ele>
                <time>2008-12-14T03:01:58Z</time>
            </trkpt>
            <trkpt lon="101.051669" lat="14.688430">
                <ele>32.341553</ele>
                <time>2008-12-14T03:02:05Z</time>
            </trkpt>
            <trkpt lon="101.052048" lat="14.688066">
                <ele>31.380127</ele>
                <time>2008-12-14T03:02:20Z</time>
            </trkpt>
            <trkpt lon="101.052142" lat="14.687921">
                <ele>32.822266</ele>
                <time>2008-12-14T03:02:28Z</time>
            </trkpt>
            <trkpt lon="101.052199" lat="14.687923">
                <ele>33.302856</ele>
                <time>2008-12-14T03:02:42Z</time>
            </trkpt>
            <trkpt lon="101.052187" lat="14.687939">
                <ele>32.822266</ele>
                <time>2008-12-14T03:03:06Z</time>
            </trkpt>
            <trkpt lon="101.052186" lat="14.687960">
                <ele>33.302856</ele>
                <time>2008-12-14T03:03:24Z</time>
            </trkpt>
            <trkpt lon="101.052184" lat="14.688053">
                <ele>29.938110</ele>
                <time>2008-12-14T03:03:37Z</time>
            </trkpt>
            <trkpt lon="101.052171" lat="14.688210">
                <ele>24.651001</ele>
                <time>2008-12-14T03:03:53Z</time>
            </trkpt>
            <trkpt lon="101.052167" lat="14.688279">
                <ele>22.247559</ele>
                <time>2008-12-14T03:04:00Z</time>
            </trkpt>
            <trkpt lon="101.052240" lat="14.688330">
                <ele>20.805664</ele>
                <time>2008-12-14T03:04:06Z</time>
            </trkpt>
            <trkpt lon="101.052274" lat="14.688327">
                <ele>20.324951</ele>
                <time>2008-12-14T03:04:08Z</time>
            </trkpt>
            <trkpt lon="101.052394" lat="14.688419">
                <ele>18.402344</ele>
                <time>2008-12-14T03:04:19Z</time>
            </trkpt>
            <trkpt lon="101.052425" lat="14.688460">
                <ele>17.441162</ele>
                <time>2008-12-14T03:04:25Z</time>
            </trkpt>
            <trkpt lon="101.052426" lat="14.688475">
                <ele>17.441162</ele>
                <time>2008-12-14T03:04:36Z</time>
            </trkpt>
            <trkpt lon="101.052420" lat="14.688479">
                <ele>18.402344</ele>
                <time>2008-12-14T03:05:41Z</time>
            </trkpt>
            <trkpt lon="101.052444" lat="14.688477">
                <ele>19.363770</ele>
                <time>2008-12-14T03:05:47Z</time>
            </trkpt>
            <trkpt lon="101.052558" lat="14.688493">
                <ele>18.883057</ele>
                <time>2008-12-14T03:05:59Z</time>
            </trkpt>
            <trkpt lon="101.052640" lat="14.688495">
                <ele>19.363770</ele>
                <time>2008-12-14T03:06:14Z</time>
            </trkpt>
            <trkpt lon="101.052741" lat="14.688521">
                <ele>18.883057</ele>
                <time>2008-12-14T03:06:26Z</time>
            </trkpt>
            <trkpt lon="101.052830" lat="14.688548">
                <ele>18.883057</ele>
                <time>2008-12-14T03:06:39Z</time>
            </trkpt>
            <trkpt lon="101.052908" lat="14.688573">
                <ele>18.402344</ele>
                <time>2008-12-14T03:06:51Z</time>
            </trkpt>
            <trkpt lon="101.053012" lat="14.688596">
                <ele>18.883057</ele>
                <time>2008-12-14T03:07:04Z</time>
            </trkpt>
            <trkpt lon="101.053111" lat="14.688577">
                <ele>20.324951</ele>
                <time>2008-12-14T03:07:17Z</time>
            </trkpt>
            <trkpt lon="101.053192" lat="14.688521">
                <ele>20.805664</ele>
                <time>2008-12-14T03:07:22Z</time>
            </trkpt>
            <trkpt lon="101.053345" lat="14.688558">
                <ele>20.324951</ele>
                <time>2008-12-14T03:07:30Z</time>
            </trkpt>
            <trkpt lon="101.053705" lat="14.688831">
                <ele>17.441162</ele>
                <time>2008-12-14T03:07:44Z</time>
            </trkpt>
            <trkpt lon="101.053998" lat="14.688932">
                <ele>17.441162</ele>
                <time>2008-12-14T03:07:57Z</time>
            </trkpt>
            <trkpt lon="101.054398" lat="14.688958">
                <ele>17.441162</ele>
                <time>2008-12-14T03:08:09Z</time>
            </trkpt>
            <trkpt lon="101.054615" lat="14.688919">
                <ele>17.921753</ele>
                <time>2008-12-14T03:08:17Z</time>
            </trkpt>
            <trkpt lon="101.054620" lat="14.688849">
                <ele>18.402344</ele>
                <time>2008-12-14T03:08:21Z</time>
            </trkpt>
            <trkpt lon="101.054638" lat="14.688589">
                <ele>22.728272</ele>
                <time>2008-12-14T03:08:37Z</time>
            </trkpt>
            <trkpt lon="101.054697" lat="14.688343">
                <ele>26.573608</ele>
                <time>2008-12-14T03:08:55Z</time>
            </trkpt>
            <trkpt lon="101.054742" lat="14.688152">
                <ele>30.418823</ele>
                <time>2008-12-14T03:09:07Z</time>
            </trkpt>
            <trkpt lon="101.054833" lat="14.688146">
                <ele>31.380127</ele>
                <time>2008-12-14T03:09:12Z</time>
            </trkpt>
            <trkpt lon="101.055296" lat="14.688292">
                <ele>31.860718</ele>
                <time>2008-12-14T03:09:26Z</time>
            </trkpt>
            <trkpt lon="101.055940" lat="14.688334">
                <ele>32.341553</ele>
                <time>2008-12-14T03:09:41Z</time>
            </trkpt>
            <trkpt lon="101.056151" lat="14.688377">
                <ele>32.822266</ele>
                <time>2008-12-14T03:09:47Z</time>
            </trkpt>
            <trkpt lon="101.056259" lat="14.688236">
                <ele>32.341553</ele>
                <time>2008-12-14T03:09:51Z</time>
            </trkpt>
            <trkpt lon="101.056267" lat="14.688040">
                <ele>31.380127</ele>
                <time>2008-12-14T03:09:55Z</time>
            </trkpt>
            <trkpt lon="101.056206" lat="14.687811">
                <ele>31.380127</ele>
                <time>2008-12-14T03:10:00Z</time>
            </trkpt>
            <trkpt lon="101.056150" lat="14.687606">
                <ele>30.899536</ele>
                <time>2008-12-14T03:10:05Z</time>
            </trkpt>
            <trkpt lon="101.056095" lat="14.687129">
                <ele>29.938110</ele>
                <time>2008-12-14T03:10:20Z</time>
            </trkpt>
            <trkpt lon="101.056044" lat="14.686687">
                <ele>30.899536</ele>
                <time>2008-12-14T03:10:34Z</time>
            </trkpt>
            <trkpt lon="101.055939" lat="14.686215">
                <ele>30.899536</ele>
                <time>2008-12-14T03:10:49Z</time>
            </trkpt>
            <trkpt lon="101.055909" lat="14.686075">
                <ele>30.899536</ele>
                <time>2008-12-14T03:10:53Z</time>
            </trkpt>
            <trkpt lon="101.055821" lat="14.686065">
                <ele>30.418823</ele>
                <time>2008-12-14T03:10:57Z</time>
            </trkpt>
            <trkpt lon="101.055472" lat="14.686293">
                <ele>29.457520</ele>
                <time>2008-12-14T03:11:11Z</time>
            </trkpt>
            <trkpt lon="101.055231" lat="14.686407">
                <ele>29.457520</ele>
                <time>2008-12-14T03:11:26Z</time>
            </trkpt>
            <trkpt lon="101.055261" lat="14.686576">
                <ele>29.938110</ele>
                <time>2008-12-14T03:11:36Z</time>
            </trkpt>
            <trkpt lon="101.055274" lat="14.686610">
                <ele>29.938110</ele>
                <time>2008-12-14T03:11:38Z</time>
            </trkpt>
            <trkpt lon="101.055264" lat="14.686627">
                <ele>30.418823</ele>
                <time>2008-12-14T03:11:48Z</time>
            </trkpt>
            <trkpt lon="101.055265" lat="14.686602">
                <ele>30.418823</ele>
                <time>2008-12-14T03:11:49Z</time>
            </trkpt>
            <trkpt lon="101.055234" lat="14.686424">
                <ele>30.899536</ele>
                <time>2008-12-14T03:12:03Z</time>
            </trkpt>
            <trkpt lon="101.055234" lat="14.686420">
                <ele>30.418823</ele>
                <time>2008-12-14T03:12:06Z</time>
            </trkpt>
            <trkpt lon="101.055252" lat="14.686372">
                <ele>29.938110</ele>
                <time>2008-12-14T03:12:14Z</time>
            </trkpt>
            <trkpt lon="101.055291" lat="14.686361">
                <ele>29.457520</ele>
                <time>2008-12-14T03:12:17Z</time>
            </trkpt>
            <trkpt lon="101.055539" lat="14.686257">
                <ele>27.534912</ele>
                <time>2008-12-14T03:12:29Z</time>
            </trkpt>
            <trkpt lon="101.055875" lat="14.686050">
                <ele>28.015503</ele>
                <time>2008-12-14T03:12:43Z</time>
            </trkpt>
            <trkpt lon="101.056112" lat="14.685948">
                <ele>27.534912</ele>
                <time>2008-12-14T03:12:56Z</time>
            </trkpt>
            <trkpt lon="101.056105" lat="14.685944">
                <ele>28.496216</ele>
                <time>2008-12-14T03:13:19Z</time>
            </trkpt>
            <trkpt lon="101.056098" lat="14.685932">
                <ele>28.496216</ele>
                <time>2008-12-14T03:13:21Z</time>
            </trkpt>
            <trkpt lon="101.056108" lat="14.685582">
                <ele>28.496216</ele>
                <time>2008-12-14T03:13:36Z</time>
            </trkpt>
            <trkpt lon="101.056125" lat="14.685228">
                <ele>29.457520</ele>
                <time>2008-12-14T03:13:50Z</time>
            </trkpt>
            <trkpt lon="101.056139" lat="14.685108">
                <ele>29.457520</ele>
                <time>2008-12-14T03:13:56Z</time>
            </trkpt>
            <trkpt lon="101.056189" lat="14.685074">
                <ele>29.457520</ele>
                <time>2008-12-14T03:14:00Z</time>
            </trkpt>
            <trkpt lon="101.056274" lat="14.685067">
                <ele>29.938110</ele>
                <time>2008-12-14T03:14:14Z</time>
            </trkpt>
            <trkpt lon="101.056250" lat="14.685069">
                <ele>28.496216</ele>
                <time>2008-12-14T03:14:23Z</time>
            </trkpt>
            <trkpt lon="101.056172" lat="14.685082">
                <ele>27.534912</ele>
                <time>2008-12-14T03:14:28Z</time>
            </trkpt>
            <trkpt lon="101.056139" lat="14.685156">
                <ele>28.015503</ele>
                <time>2008-12-14T03:14:33Z</time>
            </trkpt>
            <trkpt lon="101.056115" lat="14.685614">
                <ele>29.938110</ele>
                <time>2008-12-14T03:14:50Z</time>
            </trkpt>
            <trkpt lon="101.056102" lat="14.685932">
                <ele>30.899536</ele>
                <time>2008-12-14T03:15:02Z</time>
            </trkpt>
            <trkpt lon="101.056323" lat="14.685961">
                <ele>29.457520</ele>
                <time>2008-12-14T03:15:12Z</time>
            </trkpt>
            <trkpt lon="101.056781" lat="14.685866">
                <ele>28.015503</ele>
                <time>2008-12-14T03:15:26Z</time>
            </trkpt>
            <trkpt lon="101.057309" lat="14.685762">
                <ele>29.938110</ele>
                <time>2008-12-14T03:15:42Z</time>
            </trkpt>
            <trkpt lon="101.057562" lat="14.685693">
                <ele>29.938110</ele>
                <time>2008-12-14T03:15:53Z</time>
            </trkpt>
            <trkpt lon="101.057794" lat="14.685815">
                <ele>29.938110</ele>
                <time>2008-12-14T03:16:03Z</time>
            </trkpt>
            <trkpt lon="101.057888" lat="14.686163">
                <ele>29.457520</ele>
                <time>2008-12-14T03:16:16Z</time>
            </trkpt>
            <trkpt lon="101.058035" lat="14.686502">
                <ele>29.938110</ele>
                <time>2008-12-14T03:16:27Z</time>
            </trkpt>
            <trkpt lon="101.058198" lat="14.686810">
                <ele>29.457520</ele>
                <time>2008-12-14T03:16:38Z</time>
            </trkpt>
            <trkpt lon="101.058363" lat="14.686791">
                <ele>30.899536</ele>
                <time>2008-12-14T03:16:44Z</time>
            </trkpt>
            <trkpt lon="101.058811" lat="14.686550">
                <ele>30.899536</ele>
                <time>2008-12-14T03:16:59Z</time>
            </trkpt>
            <trkpt lon="101.059190" lat="14.686344">
                <ele>28.976929</ele>
                <time>2008-12-14T03:17:14Z</time>
            </trkpt>
            <trkpt lon="101.059450" lat="14.686219">
                <ele>28.976929</ele>
                <time>2008-12-14T03:17:24Z</time>
            </trkpt>
            <trkpt lon="101.059815" lat="14.686122">
                <ele>29.457520</ele>
                <time>2008-12-14T03:17:36Z</time>
            </trkpt>
            <trkpt lon="101.060174" lat="14.686013">
                <ele>27.534912</ele>
                <time>2008-12-14T03:17:46Z</time>
            </trkpt>
            <trkpt lon="101.060724" lat="14.685775">
                <ele>28.496216</ele>
                <time>2008-12-14T03:18:01Z</time>
            </trkpt>
            <trkpt lon="101.061138" lat="14.685562">
                <ele>28.496216</ele>
                <time>2008-12-14T03:18:13Z</time>
            </trkpt>
            <trkpt lon="101.061566" lat="14.685406">
                <ele>30.899536</ele>
                <time>2008-12-14T03:18:28Z</time>
            </trkpt>
            <trkpt lon="101.061897" lat="14.685244">
                <ele>31.380127</ele>
                <time>2008-12-14T03:18:40Z</time>
            </trkpt>
            <trkpt lon="101.062347" lat="14.685275">
                <ele>30.418823</ele>
                <time>2008-12-14T03:18:53Z</time>
            </trkpt>
            <trkpt lon="101.062505" lat="14.685227">
                <ele>30.899536</ele>
                <time>2008-12-14T03:19:01Z</time>
            </trkpt>
            <trkpt lon="101.062602" lat="14.685311">
                <ele>31.380127</ele>
                <time>2008-12-14T03:19:13Z</time>
            </trkpt>
            <trkpt lon="101.062580" lat="14.685279">
                <ele>32.822266</ele>
                <time>2008-12-14T03:19:26Z</time>
            </trkpt>
            <trkpt lon="101.062569" lat="14.685264">
                <ele>32.822266</ele>
                <time>2008-12-14T03:19:31Z</time>
            </trkpt>
            <trkpt lon="101.062552" lat="14.685255">
                <ele>32.822266</ele>
                <time>2008-12-14T03:19:33Z</time>
            </trkpt>
            <trkpt lon="101.062507" lat="14.685084">
                <ele>33.302856</ele>
                <time>2008-12-14T03:19:44Z</time>
            </trkpt>
            <trkpt lon="101.062506" lat="14.685081">
                <ele>33.302856</ele>
                <time>2008-12-14T03:19:48Z</time>
            </trkpt>
            <trkpt lon="101.062536" lat="14.684722">
                <ele>33.783447</ele>
                <time>2008-12-14T03:20:02Z</time>
            </trkpt>
            <trkpt lon="101.062468" lat="14.684376">
                <ele>34.264160</ele>
                <time>2008-12-14T03:20:12Z</time>
            </trkpt>
            <trkpt lon="101.062202" lat="14.684043">
                <ele>35.706055</ele>
                <time>2008-12-14T03:20:24Z</time>
            </trkpt>
            <trkpt lon="101.062253" lat="14.683939">
                <ele>35.706055</ele>
                <time>2008-12-14T03:20:27Z</time>
            </trkpt>
            <trkpt lon="101.062670" lat="14.683175">
                <ele>32.822266</ele>
                <time>2008-12-14T03:20:44Z</time>
            </trkpt>
            <trkpt lon="101.062914" lat="14.682890">
                <ele>32.341553</ele>
                <time>2008-12-14T03:20:51Z</time>
            </trkpt>
            <trkpt lon="101.063433" lat="14.682549">
                <ele>31.380127</ele>
                <time>2008-12-14T03:21:03Z</time>
            </trkpt>
            <trkpt lon="101.063619" lat="14.682128">
                <ele>31.380127</ele>
                <time>2008-12-14T03:21:12Z</time>
            </trkpt>
            <trkpt lon="101.063619" lat="14.682033">
                <ele>30.899536</ele>
                <time>2008-12-14T03:21:14Z</time>
            </trkpt>
            <trkpt lon="101.063874" lat="14.681839">
                <ele>32.341553</ele>
                <time>2008-12-14T03:21:22Z</time>
            </trkpt>
            <trkpt lon="101.064431" lat="14.681726">
                <ele>34.744873</ele>
                <time>2008-12-14T03:21:34Z</time>
            </trkpt>
            <trkpt lon="101.064771" lat="14.681243">
                <ele>35.225464</ele>
                <time>2008-12-14T03:21:47Z</time>
            </trkpt>
            <trkpt lon="101.064777" lat="14.681114">
                <ele>35.706055</ele>
                <time>2008-12-14T03:21:50Z</time>
            </trkpt>
            <trkpt lon="101.064552" lat="14.680525">
                <ele>36.186768</ele>
                <time>2008-12-14T03:22:06Z</time>
            </trkpt>
            <trkpt lon="101.064352" lat="14.680091">
                <ele>36.186768</ele>
                <time>2008-12-14T03:22:22Z</time>
            </trkpt>
            <trkpt lon="101.064171" lat="14.679665">
                <ele>36.667481</ele>
                <time>2008-12-14T03:22:39Z</time>
            </trkpt>
            <trkpt lon="101.064119" lat="14.679547">
                <ele>36.667481</ele>
                <time>2008-12-14T03:22:45Z</time>
            </trkpt>
            <trkpt lon="101.064128" lat="14.679572">
                <ele>36.667481</ele>
                <time>2008-12-14T03:22:50Z</time>
            </trkpt>
            <trkpt lon="101.064296" lat="14.679990">
                <ele>36.667481</ele>
                <time>2008-12-14T03:23:06Z</time>
            </trkpt>
            <trkpt lon="101.064329" lat="14.680090">
                <ele>36.667481</ele>
                <time>2008-12-14T03:23:12Z</time>
            </trkpt>
            <trkpt lon="101.064349" lat="14.680195">
                <ele>36.667481</ele>
                <time>2008-12-14T03:23:18Z</time>
            </trkpt>
            <trkpt lon="101.064711" lat="14.680839">
                <ele>36.186768</ele>
                <time>2008-12-14T03:23:31Z</time>
            </trkpt>
            <trkpt lon="101.064777" lat="14.681174">
                <ele>35.706055</ele>
                <time>2008-12-14T03:23:36Z</time>
            </trkpt>
            <trkpt lon="101.064699" lat="14.681496">
                <ele>35.225464</ele>
                <time>2008-12-14T03:23:44Z</time>
            </trkpt>
            <trkpt lon="101.064483" lat="14.681709">
                <ele>34.264160</ele>
                <time>2008-12-14T03:23:51Z</time>
            </trkpt>
            <trkpt lon="101.063885" lat="14.681837">
                <ele>33.302856</ele>
                <time>2008-12-14T03:24:02Z</time>
            </trkpt>
            <trkpt lon="101.063637" lat="14.681971">
                <ele>32.822266</ele>
                <time>2008-12-14T03:24:07Z</time>
            </trkpt>
            <trkpt lon="101.063640" lat="14.682205">
                <ele>31.860718</ele>
                <time>2008-12-14T03:24:14Z</time>
            </trkpt>
            <trkpt lon="101.064284" lat="14.682245">
                <ele>33.302856</ele>
                <time>2008-12-14T03:24:31Z</time>
            </trkpt>
            <trkpt lon="101.064838" lat="14.682269">
                <ele>34.744873</ele>
                <time>2008-12-14T03:24:48Z</time>
            </trkpt>
            <trkpt lon="101.065166" lat="14.682267">
                <ele>34.744873</ele>
                <time>2008-12-14T03:25:01Z</time>
            </trkpt>
            <trkpt lon="101.065613" lat="14.682335">
                <ele>35.706055</ele>
                <time>2008-12-14T03:25:15Z</time>
            </trkpt>
            <trkpt lon="101.065899" lat="14.682488">
                <ele>35.706055</ele>
                <time>2008-12-14T03:25:28Z</time>
            </trkpt>
            <trkpt lon="101.065958" lat="14.682497">
                <ele>36.186768</ele>
                <time>2008-12-14T03:25:31Z</time>
            </trkpt>
            <trkpt lon="101.066144" lat="14.682394">
                <ele>37.148071</ele>
                <time>2008-12-14T03:25:43Z</time>
            </trkpt>
            <trkpt lon="101.066344" lat="14.682295">
                <ele>35.706055</ele>
                <time>2008-12-14T03:25:56Z</time>
            </trkpt>
            <trkpt lon="101.066562" lat="14.682197">
                <ele>36.667481</ele>
                <time>2008-12-14T03:26:11Z</time>
            </trkpt>
            <trkpt lon="101.066726" lat="14.682045">
                <ele>38.590088</ele>
                <time>2008-12-14T03:26:22Z</time>
            </trkpt>
            <trkpt lon="101.066887" lat="14.681885">
                <ele>39.070679</ele>
                <time>2008-12-14T03:26:33Z</time>
            </trkpt>
            <trkpt lon="101.067100" lat="14.681748">
                <ele>37.628662</ele>
                <time>2008-12-14T03:26:45Z</time>
            </trkpt>
            <trkpt lon="101.066979" lat="14.681574">
                <ele>35.706055</ele>
                <time>2008-12-14T03:26:55Z</time>
            </trkpt>
            <trkpt lon="101.066954" lat="14.681496">
                <ele>36.186768</ele>
                <time>2008-12-14T03:26:59Z</time>
            </trkpt>
            <trkpt lon="101.066901" lat="14.681049">
                <ele>36.186768</ele>
                <time>2008-12-14T03:27:13Z</time>
            </trkpt>
            <trkpt lon="101.066804" lat="14.680510">
                <ele>36.667481</ele>
                <time>2008-12-14T03:27:28Z</time>
            </trkpt>
            <trkpt lon="101.066820" lat="14.680121">
                <ele>37.628662</ele>
                <time>2008-12-14T03:27:42Z</time>
            </trkpt>
            <trkpt lon="101.066792" lat="14.679876">
                <ele>37.628662</ele>
                <time>2008-12-14T03:27:53Z</time>
            </trkpt>
            <trkpt lon="101.066790" lat="14.679672">
                <ele>37.628662</ele>
                <time>2008-12-14T03:28:01Z</time>
            </trkpt>
            <trkpt lon="101.066876" lat="14.679588">
                <ele>37.628662</ele>
                <time>2008-12-14T03:28:07Z</time>
            </trkpt>
            <trkpt lon="101.066889" lat="14.679413">
                <ele>37.628662</ele>
                <time>2008-12-14T03:28:13Z</time>
            </trkpt>
            <trkpt lon="101.066829" lat="14.679369">
                <ele>38.109375</ele>
                <time>2008-12-14T03:28:17Z</time>
            </trkpt>
            <trkpt lon="101.066547" lat="14.679233">
                <ele>38.109375</ele>
                <time>2008-12-14T03:28:31Z</time>
            </trkpt>
            <trkpt lon="101.066490" lat="14.678978">
                <ele>38.590088</ele>
                <time>2008-12-14T03:28:39Z</time>
            </trkpt>
            <trkpt lon="101.066376" lat="14.678396">
                <ele>39.551269</ele>
                <time>2008-12-14T03:28:53Z</time>
            </trkpt>
            <trkpt lon="101.066301" lat="14.678095">
                <ele>40.032105</ele>
                <time>2008-12-14T03:29:02Z</time>
            </trkpt>
            <trkpt lon="101.066208" lat="14.677494">
                <ele>40.032105</ele>
                <time>2008-12-14T03:29:16Z</time>
            </trkpt>
            <trkpt lon="101.066242" lat="14.677274">
                <ele>39.070679</ele>
                <time>2008-12-14T03:29:24Z</time>
            </trkpt>
            <trkpt lon="101.066272" lat="14.677268">
                <ele>39.070679</ele>
                <time>2008-12-14T03:29:25Z</time>
            </trkpt>
            <trkpt lon="101.066583" lat="14.677215">
                <ele>40.032105</ele>
                <time>2008-12-14T03:29:35Z</time>
            </trkpt>
            <trkpt lon="101.066564" lat="14.676790">
                <ele>40.032105</ele>
                <time>2008-12-14T03:29:47Z</time>
            </trkpt>
            <trkpt lon="101.066474" lat="14.676170">
                <ele>40.512817</ele>
                <time>2008-12-14T03:30:04Z</time>
            </trkpt>
            <trkpt lon="101.066144" lat="14.675845">
                <ele>39.551269</ele>
                <time>2008-12-14T03:30:17Z</time>
            </trkpt>
            <trkpt lon="101.066022" lat="14.675567">
                <ele>40.512817</ele>
                <time>2008-12-14T03:30:25Z</time>
            </trkpt>
            <trkpt lon="101.065936" lat="14.675083">
                <ele>42.435425</ele>
                <time>2008-12-14T03:30:40Z</time>
            </trkpt>
            <trkpt lon="101.065848" lat="14.674551">
                <ele>47.241821</ele>
                <time>2008-12-14T03:31:02Z</time>
            </trkpt>
            <trkpt lon="101.065798" lat="14.674293">
                <ele>50.125977</ele>
                <time>2008-12-14T03:31:17Z</time>
            </trkpt>
            <trkpt lon="101.065754" lat="14.674169">
                <ele>52.048584</ele>
                <time>2008-12-14T03:31:25Z</time>
            </trkpt>
            <trkpt lon="101.065677" lat="14.674138">
                <ele>53.490479</ele>
                <time>2008-12-14T03:31:30Z</time>
            </trkpt>
            <trkpt lon="101.065380" lat="14.674208">
                <ele>53.490479</ele>
                <time>2008-12-14T03:31:44Z</time>
            </trkpt>
            <trkpt lon="101.064827" lat="14.674552">
                <ele>51.567871</ele>
                <time>2008-12-14T03:31:57Z</time>
            </trkpt>
            <trkpt lon="101.063948" lat="14.675126">
                <ele>48.203369</ele>
                <time>2008-12-14T03:32:12Z</time>
            </trkpt>
            <trkpt lon="101.062329" lat="14.676271">
                <ele>44.358032</ele>
                <time>2008-12-14T03:32:36Z</time>
            </trkpt>
            <trkpt lon="101.060834" lat="14.677308">
                <ele>41.473999</ele>
                <time>2008-12-14T03:32:58Z</time>
            </trkpt>
            <trkpt lon="101.059395" lat="14.678242">
                <ele>38.590088</ele>
                <time>2008-12-14T03:33:19Z</time>
            </trkpt>
            <trkpt lon="101.058155" lat="14.679085">
                <ele>36.186768</ele>
                <time>2008-12-14T03:33:38Z</time>
            </trkpt>
            <trkpt lon="101.056607" lat="14.680091">
                <ele>33.302856</ele>
                <time>2008-12-14T03:34:01Z</time>
            </trkpt>
            <trkpt lon="101.054946" lat="14.681170">
                <ele>30.418823</ele>
                <time>2008-12-14T03:34:25Z</time>
            </trkpt>
            <trkpt lon="101.054497" lat="14.681292">
                <ele>30.418823</ele>
                <time>2008-12-14T03:34:32Z</time>
            </trkpt>
            <trkpt lon="101.054484" lat="14.681281">
                <ele>30.418823</ele>
                <time>2008-12-14T03:34:37Z</time>
            </trkpt>
            <trkpt lon="101.055085" lat="14.681100">
                <ele>29.938110</ele>
                <time>2008-12-14T03:34:51Z</time>
            </trkpt>
            <trkpt lon="101.055480" lat="14.680871">
                <ele>29.938110</ele>
                <time>2008-12-14T03:34:59Z</time>
            </trkpt>
            <trkpt lon="101.055539" lat="14.680993">
                <ele>28.976929</ele>
                <time>2008-12-14T03:35:07Z</time>
            </trkpt>
            <trkpt lon="101.055535" lat="14.681045">
                <ele>28.496216</ele>
                <time>2008-12-14T03:35:08Z</time>
            </trkpt>
            <trkpt lon="101.055438" lat="14.682188">
                <ele>28.496216</ele>
                <time>2008-12-14T03:35:26Z</time>
            </trkpt>
            <trkpt lon="101.055379" lat="14.683166">
                <ele>28.496216</ele>
                <time>2008-12-14T03:35:42Z</time>
            </trkpt>
            <trkpt lon="101.055335" lat="14.683423">
                <ele>28.496216</ele>
                <time>2008-12-14T03:35:47Z</time>
            </trkpt>
            <trkpt lon="101.055225" lat="14.683723">
                <ele>28.496216</ele>
                <time>2008-12-14T03:35:58Z</time>
            </trkpt>
            <trkpt lon="101.055071" lat="14.683967">
                <ele>26.573608</ele>
                <time>2008-12-14T03:36:12Z</time>
            </trkpt>
            <trkpt lon="101.054892" lat="14.684214">
                <ele>24.170288</ele>
                <time>2008-12-14T03:36:22Z</time>
            </trkpt>
            <trkpt lon="101.054818" lat="14.684316">
                <ele>25.131714</ele>
                <time>2008-12-14T03:36:26Z</time>
            </trkpt>
            <trkpt lon="101.054709" lat="14.684469">
                <ele>26.092896</ele>
                <time>2008-12-14T03:36:32Z</time>
            </trkpt>
            <trkpt lon="101.054591" lat="14.684636">
                <ele>27.534912</ele>
                <time>2008-12-14T03:36:38Z</time>
            </trkpt>
            <trkpt lon="101.054307" lat="14.684916">
                <ele>28.496216</ele>
                <time>2008-12-14T03:36:48Z</time>
            </trkpt>
            <trkpt lon="101.054110" lat="14.684960">
                <ele>27.054321</ele>
                <time>2008-12-14T03:36:53Z</time>
            </trkpt>
            <trkpt lon="101.054004" lat="14.685114">
                <ele>25.131714</ele>
                <time>2008-12-14T03:36:58Z</time>
            </trkpt>
            <trkpt lon="101.053538" lat="14.685264">
                <ele>23.689575</ele>
                <time>2008-12-14T03:37:12Z</time>
            </trkpt>
            <trkpt lon="101.053215" lat="14.685086">
                <ele>25.612305</ele>
                <time>2008-12-14T03:37:23Z</time>
            </trkpt>
            <trkpt lon="101.053192" lat="14.684983">
                <ele>26.092896</ele>
                <time>2008-12-14T03:37:26Z</time>
            </trkpt>
            <trkpt lon="101.053326" lat="14.684520">
                <ele>24.651001</ele>
                <time>2008-12-14T03:37:37Z</time>
            </trkpt>
            <trkpt lon="101.053353" lat="14.684476">
                <ele>24.651001</ele>
                <time>2008-12-14T03:37:38Z</time>
            </trkpt>
            <trkpt lon="101.053413" lat="14.684391">
                <ele>24.651001</ele>
                <time>2008-12-14T03:37:40Z</time>
            </trkpt>
            <trkpt lon="101.053679" lat="14.684003">
                <ele>28.976929</ele>
                <time>2008-12-14T03:37:52Z</time>
            </trkpt>
            <trkpt lon="101.053998" lat="14.683797">
                <ele>29.457520</ele>
                <time>2008-12-14T03:38:02Z</time>
            </trkpt>
            <trkpt lon="101.054227" lat="14.683767">
                <ele>28.015503</ele>
                <time>2008-12-14T03:38:09Z</time>
            </trkpt>
            <trkpt lon="101.054500" lat="14.684048">
                <ele>28.015503</ele>
                <time>2008-12-14T03:38:23Z</time>
            </trkpt>
            <trkpt lon="101.054669" lat="14.684318">
                <ele>27.054321</ele>
                <time>2008-12-14T03:38:38Z</time>
            </trkpt>
            <trkpt lon="101.054683" lat="14.684333">
                <ele>27.054321</ele>
                <time>2008-12-14T03:38:39Z</time>
            </trkpt>
            <trkpt lon="101.054729" lat="14.684356">
                <ele>26.573608</ele>
                <time>2008-12-14T03:38:43Z</time>
            </trkpt>
            <trkpt lon="101.054705" lat="14.684349">
                <ele>27.054321</ele>
                <time>2008-12-14T03:38:51Z</time>
            </trkpt>
            <trkpt lon="101.054693" lat="14.684322">
                <ele>27.534912</ele>
                <time>2008-12-14T03:38:59Z</time>
            </trkpt>
            <trkpt lon="101.054642" lat="14.684285">
                <ele>28.015503</ele>
                <time>2008-12-14T03:39:03Z</time>
            </trkpt>
            <trkpt lon="101.054398" lat="14.683899">
                <ele>28.496216</ele>
                <time>2008-12-14T03:39:14Z</time>
            </trkpt>
            <trkpt lon="101.054062" lat="14.683768">
                <ele>28.015503</ele>
                <time>2008-12-14T03:39:22Z</time>
            </trkpt>
            <trkpt lon="101.053761" lat="14.683837">
                <ele>27.534912</ele>
                <time>2008-12-14T03:39:32Z</time>
            </trkpt>
            <trkpt lon="101.053557" lat="14.683773">
                <ele>27.054321</ele>
                <time>2008-12-14T03:39:38Z</time>
            </trkpt>
            <trkpt lon="101.053448" lat="14.683716">
                <ele>27.054321</ele>
                <time>2008-12-14T03:39:42Z</time>
            </trkpt>
            <trkpt lon="101.052800" lat="14.683443">
                <ele>27.534912</ele>
                <time>2008-12-14T03:39:57Z</time>
            </trkpt>
            <trkpt lon="101.052717" lat="14.683404">
                <ele>27.534912</ele>
                <time>2008-12-14T03:39:59Z</time>
            </trkpt>
            <trkpt lon="101.052178" lat="14.683209">
                <ele>27.534912</ele>
                <time>2008-12-14T03:40:14Z</time>
            </trkpt>
            <trkpt lon="101.052148" lat="14.683322">
                <ele>27.534912</ele>
                <time>2008-12-14T03:40:18Z</time>
            </trkpt>
            <trkpt lon="101.052029" lat="14.684280">
                <ele>28.015503</ele>
                <time>2008-12-14T03:40:37Z</time>
            </trkpt>
            <trkpt lon="101.051895" lat="14.684955">
                <ele>28.976929</ele>
                <time>2008-12-14T03:40:52Z</time>
            </trkpt>
            <trkpt lon="101.051873" lat="14.685621">
                <ele>28.976929</ele>
                <time>2008-12-14T03:41:08Z</time>
            </trkpt>
            <trkpt lon="101.051892" lat="14.685981">
                <ele>29.938110</ele>
                <time>2008-12-14T03:41:20Z</time>
            </trkpt>
            <trkpt lon="101.052006" lat="14.686258">
                <ele>29.938110</ele>
                <time>2008-12-14T03:41:32Z</time>
            </trkpt>
            <trkpt lon="101.052066" lat="14.686298">
                <ele>29.457520</ele>
                <time>2008-12-14T03:41:35Z</time>
            </trkpt>
            <trkpt lon="101.052000" lat="14.686299">
                <ele>28.976929</ele>
                <time>2008-12-14T03:41:43Z</time>
            </trkpt>
            <trkpt lon="101.051928" lat="14.686115">
                <ele>28.496216</ele>
                <time>2008-12-14T03:41:49Z</time>
            </trkpt>
            <trkpt lon="101.051892" lat="14.685980">
                <ele>28.015503</ele>
                <time>2008-12-14T03:41:52Z</time>
            </trkpt>
            <trkpt lon="101.051862" lat="14.685423">
                <ele>27.534912</ele>
                <time>2008-12-14T03:42:02Z</time>
            </trkpt>
            <trkpt lon="101.051869" lat="14.685261">
                <ele>27.054321</ele>
                <time>2008-12-14T03:42:05Z</time>
            </trkpt>
            <trkpt lon="101.051886" lat="14.685061">
                <ele>27.534912</ele>
                <time>2008-12-14T03:42:09Z</time>
            </trkpt>
            <trkpt lon="101.051971" lat="14.684472">
                <ele>28.015503</ele>
                <time>2008-12-14T03:42:23Z</time>
            </trkpt>
            <trkpt lon="101.051932" lat="14.684333">
                <ele>27.054321</ele>
                <time>2008-12-14T03:42:32Z</time>
            </trkpt>
            <trkpt lon="101.052045" lat="14.683838">
                <ele>27.534912</ele>
                <time>2008-12-14T03:42:46Z</time>
            </trkpt>
            <trkpt lon="101.052137" lat="14.683473">
                <ele>27.054321</ele>
                <time>2008-12-14T03:42:58Z</time>
            </trkpt>
            <trkpt lon="101.052141" lat="14.683415">
                <ele>27.054321</ele>
                <time>2008-12-14T03:43:01Z</time>
            </trkpt>
            <trkpt lon="101.051019" lat="14.683113">
                <ele>27.054321</ele>
                <time>2008-12-14T03:43:17Z</time>
            </trkpt>
            <trkpt lon="101.050790" lat="14.683016">
                <ele>27.054321</ele>
                <time>2008-12-14T03:43:22Z</time>
            </trkpt>
            <trkpt lon="101.050657" lat="14.682949">
                <ele>27.054321</ele>
                <time>2008-12-14T03:43:25Z</time>
            </trkpt>
            <trkpt lon="101.049999" lat="14.682530">
                <ele>27.534912</ele>
                <time>2008-12-14T03:43:41Z</time>
            </trkpt>
            <trkpt lon="101.049157" lat="14.682000">
                <ele>27.534912</ele>
                <time>2008-12-14T03:44:01Z</time>
            </trkpt>
            <trkpt lon="101.048385" lat="14.681527">
                <ele>27.534912</ele>
                <time>2008-12-14T03:44:19Z</time>
            </trkpt>
            <trkpt lon="101.047816" lat="14.681214">
                <ele>27.534912</ele>
                <time>2008-12-14T03:44:34Z</time>
            </trkpt>
            <trkpt lon="101.047849" lat="14.681123">
                <ele>27.054321</ele>
                <time>2008-12-14T03:44:38Z</time>
            </trkpt>
            <trkpt lon="101.048450" lat="14.680543">
                <ele>28.496216</ele>
                <time>2008-12-14T03:44:57Z</time>
            </trkpt>
            <trkpt lon="101.048561" lat="14.680371">
                <ele>28.976929</ele>
                <time>2008-12-14T03:45:06Z</time>
            </trkpt>
            <trkpt lon="101.048451" lat="14.680254">
                <ele>28.496216</ele>
                <time>2008-12-14T03:45:09Z</time>
            </trkpt>
            <trkpt lon="101.048419" lat="14.680241">
                <ele>28.496216</ele>
                <time>2008-12-14T03:45:21Z</time>
            </trkpt>
            <trkpt lon="101.048419" lat="14.680241">
                <ele>26.092896</ele>
                <time>2008-12-14T03:45:44Z</time>
            </trkpt>
            <trkpt lon="101.048419" lat="14.680241">
                <ele>23.689575</ele>
                <time>2008-12-14T03:45:56Z</time>
            </trkpt>
            <trkpt lon="101.048419" lat="14.680241">
                <ele>27.054321</ele>
                <time>2008-12-14T03:47:06Z</time>
            </trkpt>
            <trkpt lon="101.048419" lat="14.680241">
                <ele>31.380127</ele>
                <time>2008-12-14T03:49:43Z</time>
            </trkpt>
            <trkpt lon="101.048419" lat="14.680241">
                <ele>41.954712</ele>
                <time>2008-12-14T03:50:22Z</time>
            </trkpt>
            <trkpt lon="101.048419" lat="14.680241">
                <ele>41.954712</ele>
                <time>2008-12-14T03:51:16Z</time>
            </trkpt>
            <trkpt lon="101.048419" lat="14.680241">
                <ele>40.512817</ele>
                <time>2008-12-14T03:52:05Z</time>
            </trkpt>
            <trkpt lon="101.048419" lat="14.680241">
                <ele>28.496216</ele>
                <time>2008-12-14T03:53:15Z</time>
            </trkpt>
            <trkpt lon="101.048419" lat="14.680241">
                <ele>28.015503</ele>
                <time>2008-12-14T03:54:18Z</time>
            </trkpt>
            <trkpt lon="101.048419" lat="14.680241">
                <ele>28.496216</ele>
                <time>2008-12-14T03:55:46Z</time>
            </trkpt>
            <trkpt lon="101.048419" lat="14.680241">
                <ele>31.380127</ele>
                <time>2008-12-14T03:56:40Z</time>
            </trkpt>
            <trkpt lon="101.048419" lat="14.680241">
                <ele>33.783447</ele>
                <time>2008-12-14T03:57:59Z</time>
            </trkpt>
            <trkpt lon="101.048419" lat="14.680241">
                <ele>28.015503</ele>
                <time>2008-12-14T03:58:27Z</time>
            </trkpt>
            <trkpt lon="101.048419" lat="14.680241">
                <ele>36.667481</ele>
                <time>2008-12-14T03:58:59Z</time>
            </trkpt>
            <trkpt lon="101.048419" lat="14.680241">
                <ele>35.706055</ele>
                <time>2008-12-14T03:59:08Z</time>
            </trkpt>
            <trkpt lon="101.048419" lat="14.680241">
                <ele>34.264160</ele>
                <time>2008-12-14T03:59:15Z</time>
            </trkpt>
            <trkpt lon="101.048305" lat="14.680198">
                <ele>33.783447</ele>
                <time>2008-12-14T03:59:20Z</time>
            </trkpt>
            <trkpt lon="101.048109" lat="14.680124">
                <ele>32.822266</ele>
                <time>2008-12-14T03:59:27Z</time>
            </trkpt>
            <trkpt lon="101.047357" lat="14.679840">
                <ele>32.341553</ele>
                <time>2008-12-14T03:59:42Z</time>
            </trkpt>
            <trkpt lon="101.047056" lat="14.679727">
                <ele>31.860718</ele>
                <time>2008-12-14T03:59:48Z</time>
            </trkpt>
            <trkpt lon="101.047016" lat="14.679557">
                <ele>31.380127</ele>
                <time>2008-12-14T03:59:52Z</time>
            </trkpt>
            <trkpt lon="101.047094" lat="14.678678">
                <ele>31.860718</ele>
                <time>2008-12-14T04:00:07Z</time>
            </trkpt>
            <trkpt lon="101.047254" lat="14.677571">
                <ele>33.302856</ele>
                <time>2008-12-14T04:00:25Z</time>
            </trkpt>
            <trkpt lon="101.047314" lat="14.677258">
                <ele>33.783447</ele>
                <time>2008-12-14T04:00:31Z</time>
            </trkpt>
            <trkpt lon="101.047403" lat="14.676600">
                <ele>36.667481</ele>
                <time>2008-12-14T04:00:48Z</time>
            </trkpt>
            <trkpt lon="101.047133" lat="14.676488">
                <ele>36.667481</ele>
                <time>2008-12-14T04:00:58Z</time>
            </trkpt>
            <trkpt lon="101.046757" lat="14.676546">
                <ele>35.706055</ele>
                <time>2008-12-14T04:01:08Z</time>
            </trkpt>
            <trkpt lon="101.046559" lat="14.676492">
                <ele>35.225464</ele>
                <time>2008-12-14T04:01:14Z</time>
            </trkpt>
            <trkpt lon="101.046525" lat="14.676399">
                <ele>34.744873</ele>
                <time>2008-12-14T04:01:19Z</time>
            </trkpt>
            <trkpt lon="101.046581" lat="14.676246">
                <ele>34.744873</ele>
                <time>2008-12-14T04:01:30Z</time>
            </trkpt>
            <trkpt lon="101.046579" lat="14.676244">
                <ele>34.744873</ele>
                <time>2008-12-14T04:01:31Z</time>
            </trkpt>
            <trkpt lon="101.046654" lat="14.676015">
                <ele>37.628662</ele>
                <time>2008-12-14T04:01:42Z</time>
            </trkpt>
            <trkpt lon="101.046670" lat="14.675895">
                <ele>40.032105</ele>
                <time>2008-12-14T04:01:48Z</time>
            </trkpt>
            <trkpt lon="101.046650" lat="14.675707">
                <ele>40.512817</ele>
                <time>2008-12-14T04:01:57Z</time>
            </trkpt>
            <trkpt lon="101.046611" lat="14.675379">
                <ele>41.954712</ele>
                <time>2008-12-14T04:02:09Z</time>
            </trkpt>
            <trkpt lon="101.046602" lat="14.675323">
                <ele>42.435425</ele>
                <time>2008-12-14T04:02:11Z</time>
            </trkpt>
            <trkpt lon="101.046518" lat="14.675065">
                <ele>41.954712</ele>
                <time>2008-12-14T04:02:22Z</time>
            </trkpt>
            <trkpt lon="101.046518" lat="14.675033">
                <ele>40.993408</ele>
                <time>2008-12-14T04:02:23Z</time>
            </trkpt>
            <trkpt lon="101.046451" lat="14.674914">
                <ele>40.993408</ele>
                <time>2008-12-14T04:02:28Z</time>
            </trkpt>
            <trkpt lon="101.046348" lat="14.674845">
                <ele>40.512817</ele>
                <time>2008-12-14T04:02:32Z</time>
            </trkpt>
            <trkpt lon="101.046042" lat="14.674674">
                <ele>39.551269</ele>
                <time>2008-12-14T04:02:41Z</time>
            </trkpt>
            <trkpt lon="101.045871" lat="14.674629">
                <ele>39.551269</ele>
                <time>2008-12-14T04:02:45Z</time>
            </trkpt>
            <trkpt lon="101.045753" lat="14.674631">
                <ele>38.590088</ele>
                <time>2008-12-14T04:02:48Z</time>
            </trkpt>
            <trkpt lon="101.045623" lat="14.674625">
                <ele>40.032105</ele>
                <time>2008-12-14T04:02:51Z</time>
            </trkpt>
            <trkpt lon="101.045451" lat="14.674537">
                <ele>40.512817</ele>
                <time>2008-12-14T04:02:56Z</time>
            </trkpt>
            <trkpt lon="101.045323" lat="14.674227">
                <ele>43.877319</ele>
                <time>2008-12-14T04:03:06Z</time>
            </trkpt>
            <trkpt lon="101.045206" lat="14.673929">
                <ele>45.799927</ele>
                <time>2008-12-14T04:03:15Z</time>
            </trkpt>
            <trkpt lon="101.045073" lat="14.673668">
                <ele>46.761231</ele>
                <time>2008-12-14T04:03:26Z</time>
            </trkpt>
            <trkpt lon="101.045076" lat="14.673310">
                <ele>51.087158</ele>
                <time>2008-12-14T04:03:39Z</time>
            </trkpt>
            <trkpt lon="101.045155" lat="14.672954">
                <ele>53.971191</ele>
                <time>2008-12-14T04:03:52Z</time>
            </trkpt>
            <trkpt lon="101.045315" lat="14.672555">
                <ele>53.971191</ele>
                <time>2008-12-14T04:04:05Z</time>
            </trkpt>
            <trkpt lon="101.045368" lat="14.672399">
                <ele>53.490479</ele>
                <time>2008-12-14T04:04:10Z</time>
            </trkpt>
            <trkpt lon="101.045403" lat="14.672075">
                <ele>53.009766</ele>
                <time>2008-12-14T04:04:20Z</time>
            </trkpt>
            <trkpt lon="101.045353" lat="14.671992">
                <ele>51.567871</ele>
                <time>2008-12-14T04:04:23Z</time>
            </trkpt>
            <trkpt lon="101.045423" lat="14.671675">
                <ele>52.529175</ele>
                <time>2008-12-14T04:04:31Z</time>
            </trkpt>
            <trkpt lon="101.045775" lat="14.671240">
                <ele>52.529175</ele>
                <time>2008-12-14T04:04:42Z</time>
            </trkpt>
            <trkpt lon="101.045853" lat="14.671092">
                <ele>52.529175</ele>
                <time>2008-12-14T04:04:45Z</time>
            </trkpt>
            <trkpt lon="101.046095" lat="14.670556">
                <ele>55.413086</ele>
                <time>2008-12-14T04:04:59Z</time>
            </trkpt>
            <trkpt lon="101.046130" lat="14.670490">
                <ele>57.816528</ele>
                <time>2008-12-14T04:05:12Z</time>
            </trkpt>
            <trkpt lon="101.046106" lat="14.670512">
                <ele>52.529175</ele>
                <time>2008-12-14T04:05:41Z</time>
            </trkpt>
            <trkpt lon="101.046091" lat="14.670528">
                <ele>53.009766</ele>
                <time>2008-12-14T04:05:52Z</time>
            </trkpt>
            <trkpt lon="101.045980" lat="14.670781">
                <ele>53.490479</ele>
                <time>2008-12-14T04:06:03Z</time>
            </trkpt>
            <trkpt lon="101.045760" lat="14.671271">
                <ele>53.490479</ele>
                <time>2008-12-14T04:06:16Z</time>
            </trkpt>
            <trkpt lon="101.045693" lat="14.671372">
                <ele>52.529175</ele>
                <time>2008-12-14T04:06:19Z</time>
            </trkpt>
            <trkpt lon="101.045317" lat="14.671813">
                <ele>52.529175</ele>
                <time>2008-12-14T04:06:33Z</time>
            </trkpt>
            <trkpt lon="101.045174" lat="14.672095">
                <ele>52.529175</ele>
                <time>2008-12-14T04:06:44Z</time>
            </trkpt>
            <trkpt lon="101.045138" lat="14.672438">
                <ele>52.529175</ele>
                <time>2008-12-14T04:06:56Z</time>
            </trkpt>
            <trkpt lon="101.045011" lat="14.672846">
                <ele>50.125977</ele>
                <time>2008-12-14T04:07:11Z</time>
            </trkpt>
            <trkpt lon="101.044996" lat="14.673104">
                <ele>47.722534</ele>
                <time>2008-12-14T04:07:21Z</time>
            </trkpt>
            <trkpt lon="101.044920" lat="14.673300">
                <ele>46.280640</ele>
                <time>2008-12-14T04:07:31Z</time>
            </trkpt>
            <trkpt lon="101.044879" lat="14.673408">
                <ele>43.396606</ele>
                <time>2008-12-14T04:07:49Z</time>
            </trkpt>
            <trkpt lon="101.044880" lat="14.673439">
                <ele>42.916016</ele>
                <time>2008-12-14T04:07:51Z</time>
            </trkpt>
            <trkpt lon="101.044787" lat="14.673586">
                <ele>43.877319</ele>
                <time>2008-12-14T04:08:01Z</time>
            </trkpt>
            <trkpt lon="101.044768" lat="14.673625">
                <ele>43.877319</ele>
                <time>2008-12-14T04:08:05Z</time>
            </trkpt>
            <trkpt lon="101.044772" lat="14.673725">
                <ele>43.877319</ele>
                <time>2008-12-14T04:08:13Z</time>
            </trkpt>
            <trkpt lon="101.044806" lat="14.673760">
                <ele>43.877319</ele>
                <time>2008-12-14T04:08:28Z</time>
            </trkpt>
            <trkpt lon="101.044813" lat="14.673754">
                <ele>44.358032</ele>
                <time>2008-12-14T04:08:47Z</time>
            </trkpt>
            <trkpt lon="101.044774" lat="14.673735">
                <ele>44.358032</ele>
                <time>2008-12-14T04:08:59Z</time>
            </trkpt>
            <trkpt lon="101.044755" lat="14.673746">
                <ele>44.838623</ele>
                <time>2008-12-14T04:09:01Z</time>
            </trkpt>
            <trkpt lon="101.044659" lat="14.673741">
                <ele>44.838623</ele>
                <time>2008-12-14T04:09:05Z</time>
            </trkpt>
            <trkpt lon="101.044268" lat="14.673775">
                <ele>43.396606</ele>
                <time>2008-12-14T04:09:18Z</time>
            </trkpt>
            <trkpt lon="101.043989" lat="14.673829">
                <ele>40.993408</ele>
                <time>2008-12-14T04:09:26Z</time>
            </trkpt>
            <trkpt lon="101.043468" lat="14.673733">
                <ele>37.628662</ele>
                <time>2008-12-14T04:09:39Z</time>
            </trkpt>
            <trkpt lon="101.043284" lat="14.673679">
                <ele>35.706055</ele>
                <time>2008-12-14T04:09:43Z</time>
            </trkpt>
            <trkpt lon="101.043115" lat="14.673472">
                <ele>35.706055</ele>
                <time>2008-12-14T04:09:50Z</time>
            </trkpt>
            <trkpt lon="101.043216" lat="14.672950">
                <ele>39.551269</ele>
                <time>2008-12-14T04:10:06Z</time>
            </trkpt>
            <trkpt lon="101.043202" lat="14.672584">
                <ele>40.993408</ele>
                <time>2008-12-14T04:10:18Z</time>
            </trkpt>
            <trkpt lon="101.042773" lat="14.672361">
                <ele>40.512817</ele>
                <time>2008-12-14T04:10:30Z</time>
            </trkpt>
            <trkpt lon="101.042388" lat="14.672091">
                <ele>41.473999</ele>
                <time>2008-12-14T04:10:43Z</time>
            </trkpt>
            <trkpt lon="101.042121" lat="14.671981">
                <ele>40.032105</ele>
                <time>2008-12-14T04:10:55Z</time>
            </trkpt>
            <trkpt lon="101.042036" lat="14.671923">
                <ele>39.551269</ele>
                <time>2008-12-14T04:11:11Z</time>
            </trkpt>
            <trkpt lon="101.041999" lat="14.671918">
                <ele>38.590088</ele>
                <time>2008-12-14T04:11:16Z</time>
            </trkpt>
            <trkpt lon="101.041974" lat="14.671916">
                <ele>38.109375</ele>
                <time>2008-12-14T04:11:18Z</time>
            </trkpt>
            <trkpt lon="101.041939" lat="14.671887">
                <ele>37.628662</ele>
                <time>2008-12-14T04:11:21Z</time>
            </trkpt>
            <trkpt lon="101.041811" lat="14.671843">
                <ele>37.628662</ele>
                <time>2008-12-14T04:11:27Z</time>
            </trkpt>
            <trkpt lon="101.041406" lat="14.671800">
                <ele>37.628662</ele>
                <time>2008-12-14T04:11:39Z</time>
            </trkpt>
            <trkpt lon="101.041054" lat="14.671878">
                <ele>37.148071</ele>
                <time>2008-12-14T04:11:50Z</time>
            </trkpt>
            <trkpt lon="101.040818" lat="14.671920">
                <ele>38.109375</ele>
                <time>2008-12-14T04:12:01Z</time>
            </trkpt>
            <trkpt lon="101.040736" lat="14.671941">
                <ele>40.993408</ele>
                <time>2008-12-14T04:12:09Z</time>
            </trkpt>
            <trkpt lon="101.040515" lat="14.672133">
                <ele>41.473999</ele>
                <time>2008-12-14T04:12:21Z</time>
            </trkpt>
            <trkpt lon="101.040317" lat="14.672427">
                <ele>42.435425</ele>
                <time>2008-12-14T04:12:32Z</time>
            </trkpt>
            <trkpt lon="101.040003" lat="14.672703">
                <ele>42.916016</ele>
                <time>2008-12-14T04:12:44Z</time>
            </trkpt>
            <trkpt lon="101.039536" lat="14.673030">
                <ele>41.473999</ele>
                <time>2008-12-14T04:12:57Z</time>
            </trkpt>
            <trkpt lon="101.039515" lat="14.673045">
                <ele>41.473999</ele>
                <time>2008-12-14T04:12:58Z</time>
            </trkpt>
            <trkpt lon="101.039206" lat="14.673069">
                <ele>42.435425</ele>
                <time>2008-12-14T04:13:10Z</time>
            </trkpt>
            <trkpt lon="101.039082" lat="14.673055">
                <ele>42.435425</ele>
                <time>2008-12-14T04:13:14Z</time>
            </trkpt>
            <trkpt lon="101.038705" lat="14.673068">
                <ele>42.435425</ele>
                <time>2008-12-14T04:13:24Z</time>
            </trkpt>
            <trkpt lon="101.038661" lat="14.673163">
                <ele>41.954712</ele>
                <time>2008-12-14T04:13:28Z</time>
            </trkpt>
            <trkpt lon="101.038682" lat="14.673590">
                <ele>38.109375</ele>
                <time>2008-12-14T04:13:40Z</time>
            </trkpt>
            <trkpt lon="101.038500" lat="14.673883">
                <ele>34.264160</ele>
                <time>2008-12-14T04:13:51Z</time>
            </trkpt>
            <trkpt lon="101.038483" lat="14.673906">
                <ele>34.264160</ele>
                <time>2008-12-14T04:13:52Z</time>
            </trkpt>
            <trkpt lon="101.038116" lat="14.674035">
                <ele>31.380127</ele>
                <time>2008-12-14T04:14:03Z</time>
            </trkpt>
            <trkpt lon="101.037696" lat="14.674072">
                <ele>31.380127</ele>
                <time>2008-12-14T04:14:15Z</time>
            </trkpt>
            <trkpt lon="101.037475" lat="14.674185">
                <ele>30.418823</ele>
                <time>2008-12-14T04:14:26Z</time>
            </trkpt>
            <trkpt lon="101.037488" lat="14.674276">
                <ele>30.899536</ele>
                <time>2008-12-14T04:14:30Z</time>
            </trkpt>
            <trkpt lon="101.037598" lat="14.674790">
                <ele>30.418823</ele>
                <time>2008-12-14T04:14:43Z</time>
            </trkpt>
            <trkpt lon="101.037648" lat="14.674899">
                <ele>29.938110</ele>
                <time>2008-12-14T04:14:46Z</time>
            </trkpt>
            <trkpt lon="101.037710" lat="14.675072">
                <ele>28.976929</ele>
                <time>2008-12-14T04:14:50Z</time>
            </trkpt>
            <trkpt lon="101.037813" lat="14.675258">
                <ele>28.015503</ele>
                <time>2008-12-14T04:14:54Z</time>
            </trkpt>
            <trkpt lon="101.038150" lat="14.675879">
                <ele>27.054321</ele>
                <time>2008-12-14T04:15:07Z</time>
            </trkpt>
            <trkpt lon="101.038488" lat="14.676499">
                <ele>26.573608</ele>
                <time>2008-12-14T04:15:22Z</time>
            </trkpt>
            <trkpt lon="101.038533" lat="14.676726">
                <ele>26.092896</ele>
                <time>2008-12-14T04:15:27Z</time>
            </trkpt>
            <trkpt lon="101.038395" lat="14.676863">
                <ele>25.612305</ele>
                <time>2008-12-14T04:15:34Z</time>
            </trkpt>
            <trkpt lon="101.038242" lat="14.677027">
                <ele>24.651001</ele>
                <time>2008-12-14T04:15:40Z</time>
            </trkpt>
            <trkpt lon="101.038230" lat="14.677182">
                <ele>22.247559</ele>
                <time>2008-12-14T04:15:44Z</time>
            </trkpt>
            <trkpt lon="101.038247" lat="14.677594">
                <ele>21.286377</ele>
                <time>2008-12-14T04:15:55Z</time>
            </trkpt>
            <trkpt lon="101.038308" lat="14.677980">
                <ele>19.363770</ele>
                <time>2008-12-14T04:16:06Z</time>
            </trkpt>
            <trkpt lon="101.038333" lat="14.678130">
                <ele>19.844360</ele>
                <time>2008-12-14T04:16:11Z</time>
            </trkpt>
            <trkpt lon="101.038232" lat="14.678180">
                <ele>20.805664</ele>
                <time>2008-12-14T04:16:15Z</time>
            </trkpt>
            <trkpt lon="101.038132" lat="14.678209">
                <ele>21.286377</ele>
                <time>2008-12-14T04:16:17Z</time>
            </trkpt>
            <trkpt lon="101.037307" lat="14.678113">
                <ele>22.728272</ele>
                <time>2008-12-14T04:16:30Z</time>
            </trkpt>
            <trkpt lon="101.035979" lat="14.677956">
                <ele>23.689575</ele>
                <time>2008-12-14T04:16:48Z</time>
            </trkpt>
            <trkpt lon="101.034925" lat="14.677832">
                <ele>24.170288</ele>
                <time>2008-12-14T04:17:03Z</time>
            </trkpt>
            <trkpt lon="101.034087" lat="14.677734">
                <ele>24.651001</ele>
                <time>2008-12-14T04:17:18Z</time>
            </trkpt>
            <trkpt lon="101.034083" lat="14.677957">
                <ele>23.689575</ele>
                <time>2008-12-14T04:17:23Z</time>
            </trkpt>
            <trkpt lon="101.034050" lat="14.678672">
                <ele>22.247559</ele>
                <time>2008-12-14T04:17:36Z</time>
            </trkpt>
            <trkpt lon="101.033958" lat="14.678818">
                <ele>22.728272</ele>
                <time>2008-12-14T04:17:41Z</time>
            </trkpt>
            <trkpt lon="101.033602" lat="14.678776">
                <ele>23.208984</ele>
                <time>2008-12-14T04:17:49Z</time>
            </trkpt>
            <trkpt lon="101.032566" lat="14.678545">
                <ele>23.208984</ele>
                <time>2008-12-14T04:18:08Z</time>
            </trkpt>
            <trkpt lon="101.032331" lat="14.678474">
                <ele>24.170288</ele>
                <time>2008-12-14T04:18:12Z</time>
            </trkpt>
            <trkpt lon="101.031447" lat="14.678417">
                <ele>24.170288</ele>
                <time>2008-12-14T04:18:27Z</time>
            </trkpt>
            <trkpt lon="101.030373" lat="14.678298">
                <ele>24.170288</ele>
                <time>2008-12-14T04:18:44Z</time>
            </trkpt>
            <trkpt lon="101.029466" lat="14.678193">
                <ele>24.651001</ele>
                <time>2008-12-14T04:18:59Z</time>
            </trkpt>
            <trkpt lon="101.029366" lat="14.678178">
                <ele>24.651001</ele>
                <time>2008-12-14T04:19:01Z</time>
            </trkpt>
            <trkpt lon="101.029013" lat="14.678131">
                <ele>25.131714</ele>
                <time>2008-12-14T04:19:12Z</time>
            </trkpt>
            <trkpt lon="101.028996" lat="14.678114">
                <ele>25.131714</ele>
                <time>2008-12-14T04:19:17Z</time>
            </trkpt>
            <trkpt lon="101.028986" lat="14.678087">
                <ele>25.131714</ele>
                <time>2008-12-14T04:19:21Z</time>
            </trkpt>
            <trkpt lon="101.028722" lat="14.677870">
                <ele>24.651001</ele>
                <time>2008-12-14T04:19:32Z</time>
            </trkpt>
            <trkpt lon="101.028281" lat="14.677575">
                <ele>24.651001</ele>
                <time>2008-12-14T04:19:45Z</time>
            </trkpt>
            <trkpt lon="101.027911" lat="14.677220">
                <ele>24.170288</ele>
                <time>2008-12-14T04:19:59Z</time>
            </trkpt>
            <trkpt lon="101.027692" lat="14.676856">
                <ele>24.170288</ele>
                <time>2008-12-14T04:20:12Z</time>
            </trkpt>
            <trkpt lon="101.027395" lat="14.676854">
                <ele>24.170288</ele>
                <time>2008-12-14T04:20:21Z</time>
            </trkpt>
            <trkpt lon="101.026873" lat="14.676911">
                <ele>23.689575</ele>
                <time>2008-12-14T04:20:39Z</time>
            </trkpt>
            <trkpt lon="101.026823" lat="14.676915">
                <ele>24.170288</ele>
                <time>2008-12-14T04:20:50Z</time>
            </trkpt>
            <trkpt lon="101.026733" lat="14.676914">
                <ele>23.689575</ele>
                <time>2008-12-14T04:21:03Z</time>
            </trkpt>
            <trkpt lon="101.026471" lat="14.676887">
                <ele>23.689575</ele>
                <time>2008-12-14T04:21:15Z</time>
            </trkpt>
            <trkpt lon="101.026123" lat="14.676879">
                <ele>23.689575</ele>
                <time>2008-12-14T04:21:28Z</time>
            </trkpt>
            <trkpt lon="101.025771" lat="14.676773">
                <ele>22.728272</ele>
                <time>2008-12-14T04:21:44Z</time>
            </trkpt>
            <trkpt lon="101.025734" lat="14.676770">
                <ele>22.247559</ele>
                <time>2008-12-14T04:21:46Z</time>
            </trkpt>
            <trkpt lon="101.025677" lat="14.676804">
                <ele>21.766968</ele>
                <time>2008-12-14T04:22:00Z</time>
            </trkpt>
            <trkpt lon="101.025572" lat="14.677003">
                <ele>19.363770</ele>
                <time>2008-12-14T04:22:56Z</time>
            </trkpt>
            <trkpt lon="101.025541" lat="14.677090">
                <ele>18.883057</ele>
                <time>2008-12-14T04:22:59Z</time>
            </trkpt>
            <trkpt lon="101.025531" lat="14.677185">
                <ele>18.883057</ele>
                <time>2008-12-14T04:23:03Z</time>
            </trkpt>
            <trkpt lon="101.025587" lat="14.677291">
                <ele>19.363770</ele>
                <time>2008-12-14T04:23:08Z</time>
            </trkpt>
            <trkpt lon="101.025554" lat="14.677389">
                <ele>20.324951</ele>
                <time>2008-12-14T04:23:15Z</time>
            </trkpt>
            <trkpt lon="101.025525" lat="14.677523">
                <ele>20.805664</ele>
                <time>2008-12-14T04:23:27Z</time>
            </trkpt>
            <trkpt lon="101.025516" lat="14.677607">
                <ele>20.805664</ele>
                <time>2008-12-14T04:23:36Z</time>
            </trkpt>
            <trkpt lon="101.025531" lat="14.677770">
                <ele>20.805664</ele>
                <time>2008-12-14T04:23:52Z</time>
            </trkpt>
            <trkpt lon="101.025533" lat="14.677935">
                <ele>21.766968</ele>
                <time>2008-12-14T04:24:09Z</time>
            </trkpt>
            <trkpt lon="101.025527" lat="14.678036">
                <ele>21.766968</ele>
                <time>2008-12-14T04:24:23Z</time>
            </trkpt>
            <trkpt lon="101.025529" lat="14.678398">
                <ele>21.766968</ele>
                <time>2008-12-14T04:24:37Z</time>
            </trkpt>
            <trkpt lon="101.025648" lat="14.678679">
                <ele>22.247559</ele>
                <time>2008-12-14T04:24:49Z</time>
            </trkpt>
            <trkpt lon="101.025933" lat="14.678929">
                <ele>21.766968</ele>
                <time>2008-12-14T04:25:04Z</time>
            </trkpt>
            <trkpt lon="101.026264" lat="14.679093">
                <ele>21.766968</ele>
                <time>2008-12-14T04:25:19Z</time>
            </trkpt>
            <trkpt lon="101.026536" lat="14.679196">
                <ele>21.766968</ele>
                <time>2008-12-14T04:25:32Z</time>
            </trkpt>
            <trkpt lon="101.026761" lat="14.679304">
                <ele>21.286377</ele>
                <time>2008-12-14T04:25:45Z</time>
            </trkpt>
            <trkpt lon="101.026849" lat="14.679497">
                <ele>20.805664</ele>
                <time>2008-12-14T04:25:58Z</time>
            </trkpt>
            <trkpt lon="101.026845" lat="14.679670">
                <ele>21.766968</ele>
                <time>2008-12-14T04:26:07Z</time>
            </trkpt>
            <trkpt lon="101.027128" lat="14.679805">
                <ele>22.247559</ele>
                <time>2008-12-14T04:26:21Z</time>
            </trkpt>
            <trkpt lon="101.027570" lat="14.679885">
                <ele>21.766968</ele>
                <time>2008-12-14T04:26:37Z</time>
            </trkpt>
            <trkpt lon="101.028110" lat="14.679991">
                <ele>21.766968</ele>
                <time>2008-12-14T04:26:54Z</time>
            </trkpt>
            <trkpt lon="101.028525" lat="14.680040">
                <ele>21.286377</ele>
                <time>2008-12-14T04:27:06Z</time>
            </trkpt>
            <trkpt lon="101.028923" lat="14.680186">
                <ele>20.805664</ele>
                <time>2008-12-14T04:27:18Z</time>
            </trkpt>
            <trkpt lon="101.029192" lat="14.680345">
                <ele>21.766968</ele>
                <time>2008-12-14T04:27:27Z</time>
            </trkpt>
            <trkpt lon="101.029532" lat="14.680591">
                <ele>21.286377</ele>
                <time>2008-12-14T04:27:39Z</time>
            </trkpt>
            <trkpt lon="101.029581" lat="14.680963">
                <ele>21.766968</ele>
                <time>2008-12-14T04:27:51Z</time>
            </trkpt>
            <trkpt lon="101.029759" lat="14.681265">
                <ele>23.208984</ele>
                <time>2008-12-14T04:28:03Z</time>
            </trkpt>
            <trkpt lon="101.029775" lat="14.681523">
                <ele>22.728272</ele>
                <time>2008-12-14T04:28:12Z</time>
            </trkpt>
            <trkpt lon="101.029746" lat="14.681645">
                <ele>22.728272</ele>
                <time>2008-12-14T04:28:15Z</time>
            </trkpt>
            <trkpt lon="101.029807" lat="14.681833">
                <ele>22.247559</ele>
                <time>2008-12-14T04:28:20Z</time>
            </trkpt>
            <trkpt lon="101.030013" lat="14.682074">
                <ele>23.208984</ele>
                <time>2008-12-14T04:28:26Z</time>
            </trkpt>
            <trkpt lon="101.030072" lat="14.682158">
                <ele>22.728272</ele>
                <time>2008-12-14T04:28:28Z</time>
            </trkpt>
            <trkpt lon="101.030551" lat="14.682571">
                <ele>23.689575</ele>
                <time>2008-12-14T04:28:40Z</time>
            </trkpt>
            <trkpt lon="101.030685" lat="14.682651">
                <ele>23.208984</ele>
                <time>2008-12-14T04:28:43Z</time>
            </trkpt>
            <trkpt lon="101.030813" lat="14.682896">
                <ele>23.689575</ele>
                <time>2008-12-14T04:28:52Z</time>
            </trkpt>
            <trkpt lon="101.030902" lat="14.682987">
                <ele>23.689575</ele>
                <time>2008-12-14T04:28:56Z</time>
            </trkpt>
            <trkpt lon="101.030982" lat="14.683030">
                <ele>23.208984</ele>
                <time>2008-12-14T04:28:58Z</time>
            </trkpt>
            <trkpt lon="101.031154" lat="14.683117">
                <ele>23.208984</ele>
                <time>2008-12-14T04:29:02Z</time>
            </trkpt>
            <trkpt lon="101.031313" lat="14.683172">
                <ele>23.208984</ele>
                <time>2008-12-14T04:29:06Z</time>
            </trkpt>
            <trkpt lon="101.031660" lat="14.683179">
                <ele>22.728272</ele>
                <time>2008-12-14T04:29:15Z</time>
            </trkpt>
            <trkpt lon="101.032127" lat="14.683051">
                <ele>23.208984</ele>
                <time>2008-12-14T04:29:27Z</time>
            </trkpt>
            <trkpt lon="101.032347" lat="14.683025">
                <ele>23.689575</ele>
                <time>2008-12-14T04:29:32Z</time>
            </trkpt>
            <trkpt lon="101.032538" lat="14.682945">
                <ele>23.689575</ele>
                <time>2008-12-14T04:29:37Z</time>
            </trkpt>
            <trkpt lon="101.032770" lat="14.682889">
                <ele>23.689575</ele>
                <time>2008-12-14T04:29:43Z</time>
            </trkpt>
            <trkpt lon="101.032860" lat="14.682800">
                <ele>23.689575</ele>
                <time>2008-12-14T04:29:46Z</time>
            </trkpt>
            <trkpt lon="101.033157" lat="14.682740">
                <ele>24.170288</ele>
                <time>2008-12-14T04:29:55Z</time>
            </trkpt>
            <trkpt lon="101.033188" lat="14.682749">
                <ele>24.170288</ele>
                <time>2008-12-14T04:29:56Z</time>
            </trkpt>
            <trkpt lon="101.033527" lat="14.683025">
                <ele>25.131714</ele>
                <time>2008-12-14T04:30:08Z</time>
            </trkpt>
            <trkpt lon="101.033565" lat="14.683039">
                <ele>25.131714</ele>
                <time>2008-12-14T04:30:09Z</time>
            </trkpt>
            <trkpt lon="101.033749" lat="14.683367">
                <ele>25.131714</ele>
                <time>2008-12-14T04:30:18Z</time>
            </trkpt>
            <trkpt lon="101.033877" lat="14.683590">
                <ele>25.612305</ele>
                <time>2008-12-14T04:30:24Z</time>
            </trkpt>
            <trkpt lon="101.033937" lat="14.683749">
                <ele>25.612305</ele>
                <time>2008-12-14T04:30:28Z</time>
            </trkpt>
            <trkpt lon="101.033991" lat="14.683894">
                <ele>26.092896</ele>
                <time>2008-12-14T04:30:32Z</time>
            </trkpt>
            <trkpt lon="101.034246" lat="14.683899">
                <ele>27.534912</ele>
                <time>2008-12-14T04:30:38Z</time>
            </trkpt>
            <trkpt lon="101.034383" lat="14.683892">
                <ele>27.534912</ele>
                <time>2008-12-14T04:30:41Z</time>
            </trkpt>
            <trkpt lon="101.034823" lat="14.683571">
                <ele>28.015503</ele>
                <time>2008-12-14T04:30:49Z</time>
            </trkpt>
            <trkpt lon="101.034734" lat="14.683396">
                <ele>28.015503</ele>
                <time>2008-12-14T04:30:55Z</time>
            </trkpt>
            <trkpt lon="101.034784" lat="14.683504">
                <ele>27.054321</ele>
                <time>2008-12-14T04:31:01Z</time>
            </trkpt>
            <trkpt lon="101.034834" lat="14.683583">
                <ele>26.573608</ele>
                <time>2008-12-14T04:31:03Z</time>
            </trkpt>
            <trkpt lon="101.034993" lat="14.683721">
                <ele>26.092896</ele>
                <time>2008-12-14T04:31:07Z</time>
            </trkpt>
            <trkpt lon="101.035085" lat="14.683767">
                <ele>25.612305</ele>
                <time>2008-12-14T04:31:09Z</time>
            </trkpt>
            <trkpt lon="101.035209" lat="14.683828">
                <ele>25.612305</ele>
                <time>2008-12-14T04:31:12Z</time>
            </trkpt>
            <trkpt lon="101.035340" lat="14.683543">
                <ele>25.612305</ele>
                <time>2008-12-14T04:31:20Z</time>
            </trkpt>
            <trkpt lon="101.035376" lat="14.683452">
                <ele>25.612305</ele>
                <time>2008-12-14T04:31:22Z</time>
            </trkpt>
            <trkpt lon="101.035698" lat="14.683269">
                <ele>25.612305</ele>
                <time>2008-12-14T04:31:28Z</time>
            </trkpt>
            <trkpt lon="101.035724" lat="14.683034">
                <ele>24.651001</ele>
                <time>2008-12-14T04:31:31Z</time>
            </trkpt>
            <trkpt lon="101.035724" lat="14.682707">
                <ele>23.689575</ele>
                <time>2008-12-14T04:31:36Z</time>
            </trkpt>
            <trkpt lon="101.035746" lat="14.682496">
                <ele>23.208984</ele>
                <time>2008-12-14T04:31:40Z</time>
            </trkpt>
            <trkpt lon="101.035870" lat="14.682514">
                <ele>22.247559</ele>
                <time>2008-12-14T04:31:45Z</time>
            </trkpt>
            <trkpt lon="101.036499" lat="14.682874">
                <ele>21.286377</ele>
                <time>2008-12-14T04:31:57Z</time>
            </trkpt>
            <trkpt lon="101.037472" lat="14.683133">
                <ele>22.247559</ele>
                <time>2008-12-14T04:32:14Z</time>
            </trkpt>
            <trkpt lon="101.037640" lat="14.683142">
                <ele>22.728272</ele>
                <time>2008-12-14T04:32:17Z</time>
            </trkpt>
            <trkpt lon="101.037918" lat="14.683134">
                <ele>22.728272</ele>
                <time>2008-12-14T04:32:22Z</time>
            </trkpt>
            <trkpt lon="101.038764" lat="14.683002">
                <ele>24.170288</ele>
                <time>2008-12-14T04:32:38Z</time>
            </trkpt>
            <trkpt lon="101.039604" lat="14.682897">
                <ele>24.170288</ele>
                <time>2008-12-14T04:32:54Z</time>
            </trkpt>
            <trkpt lon="101.039758" lat="14.682884">
                <ele>25.131714</ele>
                <time>2008-12-14T04:32:58Z</time>
            </trkpt>
            <trkpt lon="101.039758" lat="14.682335">
                <ele>24.170288</ele>
                <time>2008-12-14T04:33:06Z</time>
            </trkpt>
            <trkpt lon="101.039641" lat="14.681690">
                <ele>25.131714</ele>
                <time>2008-12-14T04:33:16Z</time>
            </trkpt>
            <trkpt lon="101.039621" lat="14.681557">
                <ele>25.612305</ele>
                <time>2008-12-14T04:33:18Z</time>
            </trkpt>
            <trkpt lon="101.039586" lat="14.680656">
                <ele>26.573608</ele>
                <time>2008-12-14T04:33:32Z</time>
            </trkpt>
            <trkpt lon="101.039620" lat="14.680386">
                <ele>27.054321</ele>
                <time>2008-12-14T04:33:37Z</time>
            </trkpt>
            <trkpt lon="101.039767" lat="14.680094">
                <ele>26.573608</ele>
                <time>2008-12-14T04:33:44Z</time>
            </trkpt>
            <trkpt lon="101.039829" lat="14.679957">
                <ele>26.092896</ele>
                <time>2008-12-14T04:33:51Z</time>
            </trkpt>
            <trkpt lon="101.040647" lat="14.680066">
                <ele>25.131714</ele>
                <time>2008-12-14T04:34:07Z</time>
            </trkpt>
            <trkpt lon="101.040809" lat="14.680067">
                <ele>25.612305</ele>
                <time>2008-12-14T04:34:11Z</time>
            </trkpt>
            <trkpt lon="101.041060" lat="14.680077">
                <ele>25.612305</ele>
                <time>2008-12-14T04:34:17Z</time>
            </trkpt>
            <trkpt lon="101.041743" lat="14.680083">
                <ele>25.612305</ele>
                <time>2008-12-14T04:34:34Z</time>
            </trkpt>
            <trkpt lon="101.042416" lat="14.680134">
                <ele>25.131714</ele>
                <time>2008-12-14T04:34:50Z</time>
            </trkpt>
            <trkpt lon="101.042488" lat="14.680146">
                <ele>25.131714</ele>
                <time>2008-12-14T04:34:52Z</time>
            </trkpt>
            <trkpt lon="101.043088" lat="14.680181">
                <ele>26.092896</ele>
                <time>2008-12-14T04:35:05Z</time>
            </trkpt>
            <trkpt lon="101.043159" lat="14.680187">
                <ele>26.092896</ele>
                <time>2008-12-14T04:35:08Z</time>
            </trkpt>
            <trkpt lon="101.043179" lat="14.680211">
                <ele>26.092896</ele>
                <time>2008-12-14T04:35:13Z</time>
            </trkpt>
            <trkpt lon="101.043196" lat="14.680448">
                <ele>25.612305</ele>
                <time>2008-12-14T04:35:23Z</time>
            </trkpt>
            <trkpt lon="101.043173" lat="14.680790">
                <ele>25.131714</ele>
                <time>2008-12-14T04:35:37Z</time>
            </trkpt>
            <trkpt lon="101.043170" lat="14.680867">
                <ele>25.131714</ele>
                <time>2008-12-14T04:35:41Z</time>
            </trkpt>
            <trkpt lon="101.043158" lat="14.681148">
                <ele>25.612305</ele>
                <time>2008-12-14T04:35:53Z</time>
            </trkpt>
            <trkpt lon="101.043149" lat="14.681306">
                <ele>25.131714</ele>
                <time>2008-12-14T04:36:05Z</time>
            </trkpt>
            <trkpt lon="101.043155" lat="14.681596">
                <ele>24.170288</ele>
                <time>2008-12-14T04:36:16Z</time>
            </trkpt>
            <trkpt lon="101.043075" lat="14.681641">
                <ele>24.170288</ele>
                <time>2008-12-14T04:36:21Z</time>
            </trkpt>
            <trkpt lon="101.042789" lat="14.681599">
                <ele>23.689575</ele>
                <time>2008-12-14T04:36:30Z</time>
            </trkpt>
            <trkpt lon="101.042556" lat="14.681589">
                <ele>23.208984</ele>
                <time>2008-12-14T04:36:35Z</time>
            </trkpt>
            <trkpt lon="101.042438" lat="14.681671">
                <ele>23.208984</ele>
                <time>2008-12-14T04:36:39Z</time>
            </trkpt>
            <trkpt lon="101.042327" lat="14.682195">
                <ele>23.208984</ele>
                <time>2008-12-14T04:36:50Z</time>
            </trkpt>
            <trkpt lon="101.042240" lat="14.682646">
                <ele>21.766968</ele>
                <time>2008-12-14T04:36:59Z</time>
            </trkpt>
            <trkpt lon="101.042230" lat="14.683034">
                <ele>24.170288</ele>
                <time>2008-12-14T04:37:07Z</time>
            </trkpt>
            <trkpt lon="101.042405" lat="14.683030">
                <ele>22.247559</ele>
                <time>2008-12-14T04:37:12Z</time>
            </trkpt>
            <trkpt lon="101.042511" lat="14.683035">
                <ele>22.247559</ele>
                <time>2008-12-14T04:37:14Z</time>
            </trkpt>
            <trkpt lon="101.043074" lat="14.683042">
                <ele>21.766968</ele>
                <time>2008-12-14T04:37:24Z</time>
            </trkpt>
            <trkpt lon="101.043284" lat="14.682977">
                <ele>22.247559</ele>
                <time>2008-12-14T04:37:28Z</time>
            </trkpt>
            <trkpt lon="101.043545" lat="14.682793">
                <ele>24.170288</ele>
                <time>2008-12-14T04:37:35Z</time>
            </trkpt>
            <trkpt lon="101.043760" lat="14.682756">
                <ele>24.170288</ele>
                <time>2008-12-14T04:37:40Z</time>
            </trkpt>
            <trkpt lon="101.044607" lat="14.682927">
                <ele>22.247559</ele>
                <time>2008-12-14T04:37:56Z</time>
            </trkpt>
            <trkpt lon="101.044757" lat="14.683041">
                <ele>22.247559</ele>
                <time>2008-12-14T04:38:00Z</time>
            </trkpt>
            <trkpt lon="101.044993" lat="14.683356">
                <ele>23.689575</ele>
                <time>2008-12-14T04:38:10Z</time>
            </trkpt>
            <trkpt lon="101.044993" lat="14.683356">
                <ele>23.208984</ele>
                <time>2008-12-14T04:38:15Z</time>
            </trkpt>
            <trkpt lon="101.044993" lat="14.683356">
                <ele>21.766968</ele>
                <time>2008-12-14T04:38:28Z</time>
            </trkpt>
            <trkpt lon="101.044464" lat="14.683825">
                <ele>22.728272</ele>
                <time>2008-12-14T04:38:36Z</time>
            </trkpt>
            <trkpt lon="101.044449" lat="14.684091">
                <ele>24.170288</ele>
                <time>2008-12-14T04:38:45Z</time>
            </trkpt>
            <trkpt lon="101.044437" lat="14.684245">
                <ele>24.170288</ele>
                <time>2008-12-14T04:38:52Z</time>
            </trkpt>
            <trkpt lon="101.044391" lat="14.684406">
                <ele>23.208984</ele>
                <time>2008-12-14T04:38:57Z</time>
            </trkpt>
            <trkpt lon="101.044269" lat="14.684527">
                <ele>23.208984</ele>
                <time>2008-12-14T04:39:01Z</time>
            </trkpt>
            <trkpt lon="101.043998" lat="14.684746">
                <ele>22.247559</ele>
                <time>2008-12-14T04:39:09Z</time>
            </trkpt>
            <trkpt lon="101.043901" lat="14.684965">
                <ele>21.286377</ele>
                <time>2008-12-14T04:39:14Z</time>
            </trkpt>
            <trkpt lon="101.043818" lat="14.685305">
                <ele>20.324951</ele>
                <time>2008-12-14T04:39:22Z</time>
            </trkpt>
            <trkpt lon="101.043630" lat="14.685750">
                <ele>22.728272</ele>
                <time>2008-12-14T04:39:33Z</time>
            </trkpt>
            <trkpt lon="101.043522" lat="14.686135">
                <ele>21.766968</ele>
                <time>2008-12-14T04:39:43Z</time>
            </trkpt>
            <trkpt lon="101.043578" lat="14.686407">
                <ele>21.286377</ele>
                <time>2008-12-14T04:39:50Z</time>
            </trkpt>
            <trkpt lon="101.043588" lat="14.686875">
                <ele>27.054321</ele>
                <time>2008-12-14T04:40:01Z</time>
            </trkpt>
            <trkpt lon="101.043528" lat="14.687017">
                <ele>28.015503</ele>
                <time>2008-12-14T04:40:05Z</time>
            </trkpt>
            <trkpt lon="101.043633" lat="14.687242">
                <ele>23.689575</ele>
                <time>2008-12-14T04:40:13Z</time>
            </trkpt>
            <trkpt lon="101.043480" lat="14.687408">
                <ele>27.534912</ele>
                <time>2008-12-14T04:40:21Z</time>
            </trkpt>
            <trkpt lon="101.042622" lat="14.687691">
                <ele>28.015503</ele>
                <time>2008-12-14T04:40:40Z</time>
            </trkpt>
            <trkpt lon="101.042523" lat="14.687691">
                <ele>28.015503</ele>
                <time>2008-12-14T04:40:42Z</time>
            </trkpt>
            <trkpt lon="101.042428" lat="14.687691">
                <ele>27.534912</ele>
                <time>2008-12-14T04:40:44Z</time>
            </trkpt>
            <trkpt lon="101.041855" lat="14.687495">
                <ele>26.092896</ele>
                <time>2008-12-14T04:40:58Z</time>
            </trkpt>
            <trkpt lon="101.041855" lat="14.687495">
                <ele>26.092896</ele>
                <time>2008-12-14T04:41:28Z</time>
            </trkpt>
            <trkpt lon="101.041802" lat="14.687468">
                <ele>26.092896</ele>
                <time>2008-12-14T04:41:49Z</time>
            </trkpt>
            <trkpt lon="101.041716" lat="14.687425">
                <ele>26.573608</ele>
                <time>2008-12-14T04:41:53Z</time>
            </trkpt>
            <trkpt lon="101.041625" lat="14.687380">
                <ele>26.573608</ele>
                <time>2008-12-14T04:41:57Z</time>
            </trkpt>
            <trkpt lon="101.041658" lat="14.687338">
                <ele>26.573608</ele>
                <time>2008-12-14T04:42:01Z</time>
            </trkpt>
            <trkpt lon="101.041872" lat="14.687503">
                <ele>25.612305</ele>
                <time>2008-12-14T04:42:09Z</time>
            </trkpt>
            <trkpt lon="101.042267" lat="14.687681">
                <ele>25.612305</ele>
                <time>2008-12-14T04:42:18Z</time>
            </trkpt>
            <trkpt lon="101.042514" lat="14.687691">
                <ele>25.131714</ele>
                <time>2008-12-14T04:42:23Z</time>
            </trkpt>
            <trkpt lon="101.043450" lat="14.687482">
                <ele>25.131714</ele>
                <time>2008-12-14T04:42:40Z</time>
            </trkpt>
            <trkpt lon="101.043891" lat="14.687177">
                <ele>25.131714</ele>
                <time>2008-12-14T04:42:50Z</time>
            </trkpt>
            <trkpt lon="101.044507" lat="14.686961">
                <ele>23.689575</ele>
                <time>2008-12-14T04:43:03Z</time>
            </trkpt>
            <trkpt lon="101.044673" lat="14.686961">
                <ele>23.208984</ele>
                <time>2008-12-14T04:43:08Z</time>
            </trkpt>
            <trkpt lon="101.044865" lat="14.687004">
                <ele>23.208984</ele>
                <time>2008-12-14T04:43:17Z</time>
            </trkpt>
            <trkpt lon="101.044865" lat="14.687004">
                <ele>25.131714</ele>
                <time>2008-12-14T04:43:22Z</time>
            </trkpt>
            <trkpt lon="101.045264" lat="14.687628">
                <ele>25.131714</ele>
                <time>2008-12-14T04:43:27Z</time>
            </trkpt>
            <trkpt lon="101.045391" lat="14.687851">
                <ele>23.208984</ele>
                <time>2008-12-14T04:43:32Z</time>
            </trkpt>
            <trkpt lon="101.045626" lat="14.688033">
                <ele>22.247559</ele>
                <time>2008-12-14T04:43:36Z</time>
            </trkpt>
            <trkpt lon="101.045851" lat="14.688368">
                <ele>23.689575</ele>
                <time>2008-12-14T04:43:43Z</time>
            </trkpt>
            <trkpt lon="101.045868" lat="14.688446">
                <ele>23.689575</ele>
                <time>2008-12-14T04:43:45Z</time>
            </trkpt>
            <trkpt lon="101.046000" lat="14.688697">
                <ele>24.651001</ele>
                <time>2008-12-14T04:43:51Z</time>
            </trkpt>
            <trkpt lon="101.046080" lat="14.688919">
                <ele>24.170288</ele>
                <time>2008-12-14T04:43:55Z</time>
            </trkpt>
            <trkpt lon="101.046079" lat="14.689138">
                <ele>23.689575</ele>
                <time>2008-12-14T04:43:58Z</time>
            </trkpt>
            <trkpt lon="101.046200" lat="14.689865">
                <ele>22.728272</ele>
                <time>2008-12-14T04:44:09Z</time>
            </trkpt>
            <trkpt lon="101.046335" lat="14.690151">
                <ele>24.170288</ele>
                <time>2008-12-14T04:44:15Z</time>
            </trkpt>
            <trkpt lon="101.046495" lat="14.690268">
                <ele>24.651001</ele>
                <time>2008-12-14T04:44:19Z</time>
            </trkpt>
            <trkpt lon="101.046596" lat="14.690309">
                <ele>24.170288</ele>
                <time>2008-12-14T04:44:21Z</time>
            </trkpt>
            <trkpt lon="101.047217" lat="14.690594">
                <ele>25.131714</ele>
                <time>2008-12-14T04:44:33Z</time>
            </trkpt>
            <trkpt lon="101.047403" lat="14.690661">
                <ele>25.131714</ele>
                <time>2008-12-14T04:44:37Z</time>
            </trkpt>
            <trkpt lon="101.047493" lat="14.690685">
                <ele>24.651001</ele>
                <time>2008-12-14T04:44:39Z</time>
            </trkpt>
            <trkpt lon="101.047860" lat="14.690694">
                <ele>23.689575</ele>
                <time>2008-12-14T04:44:47Z</time>
            </trkpt>
            <trkpt lon="101.048071" lat="14.690867">
                <ele>23.689575</ele>
                <time>2008-12-14T04:44:54Z</time>
            </trkpt>
            <trkpt lon="101.048130" lat="14.691082">
                <ele>22.728272</ele>
                <time>2008-12-14T04:44:59Z</time>
            </trkpt>
            <trkpt lon="101.048354" lat="14.691240">
                <ele>23.208984</ele>
                <time>2008-12-14T04:45:05Z</time>
            </trkpt>
            <trkpt lon="101.048349" lat="14.691495">
                <ele>22.728272</ele>
                <time>2008-12-14T04:45:15Z</time>
            </trkpt>
            <trkpt lon="101.048318" lat="14.691506">
                <ele>22.728272</ele>
                <time>2008-12-14T04:45:16Z</time>
            </trkpt>
            <trkpt lon="101.047958" lat="14.691656">
                <ele>21.286377</ele>
                <time>2008-12-14T04:45:28Z</time>
            </trkpt>
            <trkpt lon="101.047944" lat="14.691679">
                <ele>21.286377</ele>
                <time>2008-12-14T04:45:29Z</time>
            </trkpt>
            <trkpt lon="101.047835" lat="14.691715">
                <ele>22.728272</ele>
                <time>2008-12-14T04:45:40Z</time>
            </trkpt>
            <trkpt lon="101.047841" lat="14.691718">
                <ele>23.689575</ele>
                <time>2008-12-14T04:45:44Z</time>
            </trkpt>
        </trkseg>
    </trk>
</gpx>